Elkhart Lake, Wisconsin
Current Conditions -  °F | °C
As of 12:21 PM on Wednesday 26 Nov 2014 (Local Time) from KSBM Reporting Station
Broken Clouds Broken Clouds  
Wind Chill: 18°   Ceiling: 2700
Heat Index: 25°   Visibility: 8mi
Dew Point: 19°   Wind: 6mph
Humidity: 78%   Direction: 30°NNE
Pressure: 30.14"   Gusts: NA
Location:  43.83°N, 88.02°W
Report Text: KSBM 261821Z AUTO 03005KT 8SM FEW015 BKN027 M04/M07 A3014 RMK AO2 T10391072
Loading
Personal Weather Stations






























Interactive Weather Map New forecast layout! Learn more

10-Day Weather Forecast

Advertisements
Track Severe Weather on mobile